SUR4070 SPCL-SPJC
Flight info
| Callsign | SUR4070 |
|---|---|
| Flight time | 0h 59m |
| Altitude | 24000 |
| Route | COCOS1 COCOS UT313 RENON PADIS2 |
| Aircraft | E175/L-S/1200 |
Departure
| Time | 2026-05-04 19:30 |
|---|---|
| Airport | Cap FAP David Abenzur Rengifo International Airport (SPCL) |
Arrival
| Time | 2026-05-04 20:29 |
|---|---|
| Airport | Jorge Chávez International Airport (SPJC) |
| Time | Latitude | Longitude | Altitude | Speed | Heading |
|---|---|---|---|---|---|
| 2026-05-04 19:24 | -8.38342 | -74.57427 | 505 ft | 0 kts | 18° |
| 2026-05-04 19:25 | -8.38340 | -74.57430 | 505 ft | 0 kts | 279° |
| 2026-05-04 19:25 | -8.38342 | -74.57438 | 505 ft | 4 kts | 250° |
| 2026-05-04 19:25 | -8.38385 | -74.57468 | 505 ft | 8 kts | 197° |
| 2026-05-04 19:26 | -8.38434 | -74.57481 | 505 ft | 7 kts | 195° |
| 2026-05-04 19:26 | -8.38478 | -74.57500 | 505 ft | 6 kts | 217° |
| 2026-05-04 19:26 | -8.38492 | -74.57542 | 505 ft | 7 kts | 279° |
| 2026-05-04 19:26 | -8.38483 | -74.57577 | 505 ft | 0 kts | 285° |
| 2026-05-04 19:27 | -8.38477 | -74.57597 | 505 ft | 9 kts | 291° |
| 2026-05-04 19:27 | -8.38460 | -74.57661 | 505 ft | 9 kts | 257° |
| 2026-05-04 19:27 | -8.38522 | -74.57697 | 505 ft | 13 kts | 197° |
| 2026-05-04 19:28 | -8.38640 | -74.57737 | 505 ft | 18 kts | 197° |
| 2026-05-04 19:28 | -8.38766 | -74.57779 | 505 ft | 19 kts | 199° |
| 2026-05-04 19:28 | -8.38893 | -74.57819 | 505 ft | 18 kts | 197° |
| 2026-05-04 19:28 | -8.38943 | -74.57847 | 505 ft | 4 kts | 323° |
| 2026-05-04 19:29 | -8.38933 | -74.57848 | 505 ft | 0 kts | 17° |
| 2026-05-04 19:29 | -8.38721 | -74.57774 | 505 ft | 74 kts | 19° |
| 2026-05-04 19:29 | -8.37983 | -74.57510 | 510 ft | 145 kts | 18° |
| 2026-05-04 19:29 | -8.36936 | -74.57119 | 854 ft | 177 kts | 22° |
| 2026-05-04 19:30 | -8.35733 | -74.56666 | 1277 ft | 195 kts | 19° |
| 2026-05-04 19:30 | -8.34349 | -74.56171 | 1820 ft | 224 kts | 15° |
| 2026-05-04 19:30 | -8.32775 | -74.56220 | 2333 ft | 238 kts | 337° |
| 2026-05-04 19:30 | -8.31562 | -74.57253 | 2831 ft | 244 kts | 300° |
| 2026-05-04 19:31 | -8.31212 | -74.58899 | 3330 ft | 248 kts | 262° |
| 2026-05-04 19:31 | -8.31936 | -74.60436 | 3829 ft | 253 kts | 227° |
| 2026-05-04 19:31 | -8.33173 | -74.61712 | 4319 ft | 257 kts | 229° |
| 2026-05-04 19:31 | -8.34326 | -74.63049 | 4763 ft | 259 kts | 231° |
| 2026-05-04 19:32 | -8.35442 | -74.64443 | 5208 ft | 260 kts | 232° |
| 2026-05-04 19:32 | -8.36559 | -74.65894 | 5663 ft | 261 kts | 233° |
| 2026-05-04 19:32 | -8.37657 | -74.67347 | 6114 ft | 263 kts | 233° |
| 2026-05-04 19:32 | -8.38761 | -74.68823 | 6567 ft | 264 kts | 233° |
| 2026-05-04 19:33 | -8.39871 | -74.70313 | 7021 ft | 266 kts | 233° |
| 2026-05-04 19:33 | -8.40980 | -74.71807 | 7474 ft | 269 kts | 232° |
| 2026-05-04 19:33 | -8.42096 | -74.73312 | 7922 ft | 269 kts | 232° |
| 2026-05-04 19:33 | -8.43229 | -74.74840 | 8378 ft | 271 kts | 232° |
| 2026-05-04 19:34 | -8.44350 | -74.76353 | 8826 ft | 272 kts | 232° |
| 2026-05-04 19:34 | -8.45501 | -74.77906 | 9287 ft | 275 kts | 232° |
| 2026-05-04 19:34 | -8.46635 | -74.79436 | 9738 ft | 276 kts | 232° |
| 2026-05-04 19:34 | -8.47792 | -74.80998 | 10194 ft | 279 kts | 232° |
| 2026-05-04 19:35 | -8.48992 | -74.82617 | 10676 ft | 296 kts | 232° |
| 2026-05-04 19:35 | -8.50257 | -74.84325 | 11164 ft | 314 kts | 232° |
| 2026-05-04 19:35 | -8.51589 | -74.86124 | 11644 ft | 331 kts | 232° |
| 2026-05-04 19:35 | -8.53000 | -74.88031 | 12124 ft | 347 kts | 232° |
| 2026-05-04 19:36 | -8.54477 | -74.90025 | 12602 ft | 363 kts | 232° |
| 2026-05-04 19:36 | -8.56012 | -74.92100 | 13070 ft | 372 kts | 231° |
| 2026-05-04 19:36 | -8.57582 | -74.94222 | 13526 ft | 377 kts | 231° |
| 2026-05-04 19:36 | -8.59163 | -74.96359 | 13979 ft | 382 kts | 231° |
| 2026-05-04 19:37 | -8.60752 | -74.98507 | 14425 ft | 384 kts | 231° |
| 2026-05-04 19:37 | -8.62355 | -75.00675 | 14875 ft | 387 kts | 232° |
| 2026-05-04 19:37 | -8.63964 | -75.02850 | 15324 ft | 391 kts | 232° |
| 2026-05-04 19:37 | -8.65607 | -75.05073 | 15775 ft | 394 kts | 231° |
| 2026-05-04 19:38 | -8.67244 | -75.07286 | 16215 ft | 398 kts | 231° |
| 2026-05-04 19:38 | -8.68912 | -75.09543 | 16659 ft | 402 kts | 231° |
| 2026-05-04 19:38 | -8.70591 | -75.11815 | 17110 ft | 405 kts | 232° |
| 2026-05-04 19:38 | -8.72284 | -75.14105 | 17553 ft | 408 kts | 231° |
| 2026-05-04 19:39 | -8.74002 | -75.16431 | 18007 ft | 411 kts | 231° |
| 2026-05-04 19:39 | -8.75717 | -75.18752 | 18453 ft | 415 kts | 231° |
| 2026-05-04 19:39 | -8.77425 | -75.21066 | 18886 ft | 417 kts | 232° |
| 2026-05-04 19:39 | -8.79166 | -75.23424 | 19334 ft | 418 kts | 232° |
| 2026-05-04 19:40 | -8.80897 | -75.25768 | 19781 ft | 422 kts | 232° |
| 2026-05-04 19:40 | -8.82654 | -75.28149 | 20219 ft | 424 kts | 232° |
| 2026-05-04 19:40 | -8.84417 | -75.30537 | 20656 ft | 427 kts | 232° |
| 2026-05-04 19:40 | -8.86191 | -75.32940 | 21094 ft | 428 kts | 232° |
| 2026-05-04 19:41 | -8.88278 | -75.35040 | 21522 ft | 427 kts | 212° |
| 2026-05-04 19:41 | -8.90877 | -75.36534 | 22007 ft | 427 kts | 206° |
| 2026-05-04 19:41 | -8.93542 | -75.37927 | 22463 ft | 431 kts | 205° |
| 2026-05-04 19:41 | -8.96200 | -75.39299 | 22918 ft | 433 kts | 205° |
| 2026-05-04 19:42 | -8.98892 | -75.40683 | 23377 ft | 436 kts | 205° |
| 2026-05-04 19:42 | -9.01607 | -75.42078 | 23838 ft | 438 kts | 205° |
| 2026-05-04 19:42 | -9.04339 | -75.43481 | 23983 ft | 445 kts | 205° |
| 2026-05-04 19:42 | -9.07129 | -75.44913 | 24014 ft | 443 kts | 205° |
| 2026-05-04 19:43 | -9.09879 | -75.46326 | 24020 ft | 442 kts | 206° |
| 2026-05-04 19:43 | -9.12604 | -75.47726 | 24017 ft | 441 kts | 205° |
| 2026-05-04 19:43 | -9.15367 | -75.49146 | 24108 ft | 440 kts | 206° |
| 2026-05-04 19:43 | -9.18099 | -75.50550 | 24248 ft | 442 kts | 205° |
| 2026-05-04 19:44 | -9.20820 | -75.51949 | 24384 ft | 442 kts | 206° |
| 2026-05-04 19:44 | -9.23581 | -75.53368 | 24528 ft | 444 kts | 205° |
| 2026-05-04 19:44 | -9.26338 | -75.54786 | 24670 ft | 445 kts | 206° |
| 2026-05-04 19:44 | -9.29071 | -75.56192 | 24808 ft | 445 kts | 206° |
| 2026-05-04 19:45 | -9.31830 | -75.57611 | 24947 ft | 446 kts | 206° |
| 2026-05-04 19:45 | -9.34625 | -75.59049 | 25091 ft | 447 kts | 206° |
| 2026-05-04 19:45 | -9.37421 | -75.60487 | 25234 ft | 448 kts | 206° |
| 2026-05-04 19:45 | -9.40179 | -75.61907 | 25373 ft | 450 kts | 206° |
| 2026-05-04 19:46 | -9.42971 | -75.63344 | 25512 ft | 450 kts | 206° |
| 2026-05-04 19:46 | -9.45785 | -75.64793 | 25652 ft | 451 kts | 206° |
| 2026-05-04 19:46 | -9.48573 | -75.66228 | 25790 ft | 453 kts | 206° |
| 2026-05-04 19:46 | -9.51397 | -75.67683 | 25928 ft | 451 kts | 206° |
| 2026-05-04 19:47 | -9.54203 | -75.69128 | 26069 ft | 453 kts | 206° |
| 2026-05-04 19:47 | -9.56996 | -75.70567 | 26207 ft | 453 kts | 206° |
| 2026-05-04 19:47 | -9.59806 | -75.72016 | 26347 ft | 454 kts | 206° |
| 2026-05-04 19:47 | -9.62632 | -75.73472 | 26656 ft | 453 kts | 207° |
| 2026-05-04 19:48 | -9.65425 | -75.74912 | 27065 ft | 454 kts | 206° |
| 2026-05-04 19:48 | -9.68274 | -75.76380 | 27470 ft | 456 kts | 207° |
| 2026-05-04 19:48 | -9.71065 | -75.77821 | 27867 ft | 456 kts | 207° |
| 2026-05-04 19:48 | -9.73938 | -75.79302 | 28255 ft | 457 kts | 207° |
| 2026-05-04 19:49 | -9.76756 | -75.80754 | 28531 ft | 460 kts | 207° |
| 2026-05-04 19:49 | -9.82545 | -75.83743 | 28798 ft | 471 kts | 207° |
| 2026-05-04 19:49 | -9.85489 | -75.85264 | 29116 ft | 473 kts | 207° |
| 2026-05-04 19:50 | -9.88412 | -75.86773 | 29429 ft | 476 kts | 207° |
| 2026-05-04 19:50 | -9.91365 | -75.88297 | 29744 ft | 478 kts | 207° |
| 2026-05-04 19:50 | -9.94316 | -75.89822 | 30058 ft | 480 kts | 207° |
| 2026-05-04 19:50 | -9.97301 | -75.91363 | 30375 ft | 482 kts | 207° |
| 2026-05-04 19:51 | -10.00287 | -75.92906 | 30694 ft | 484 kts | 207° |
| 2026-05-04 19:51 | -10.03276 | -75.94452 | 31012 ft | 486 kts | 207° |
| 2026-05-04 19:51 | -10.06277 | -75.96003 | 31333 ft | 488 kts | 207° |
| 2026-05-04 19:51 | -10.09313 | -75.97573 | 31653 ft | 489 kts | 207° |
| 2026-05-04 19:52 | -10.12327 | -75.99132 | 31960 ft | 491 kts | 207° |
| 2026-05-04 19:52 | -10.15351 | -76.00696 | 32272 ft | 492 kts | 207° |
| 2026-05-04 19:52 | -10.18432 | -76.02290 | 32586 ft | 493 kts | 207° |
| 2026-05-04 19:53 | -10.24583 | -76.05473 | 32755 ft | 504 kts | 207° |
| 2026-05-04 19:53 | -10.27684 | -76.07079 | 33194 ft | 502 kts | 207° |
| 2026-05-04 19:53 | -10.30785 | -76.08684 | 33596 ft | 501 kts | 208° |
| 2026-05-04 19:53 | -10.33890 | -76.10293 | 34002 ft | 500 kts | 208° |
| 2026-05-04 19:54 | -10.36991 | -76.11900 | 34414 ft | 498 kts | 207° |
| 2026-05-04 19:54 | -10.40058 | -76.13489 | 34762 ft | 499 kts | 208° |
| 2026-05-04 19:54 | -10.43195 | -76.15115 | 34782 ft | 505 kts | 208° |
| 2026-05-04 19:55 | -10.49512 | -76.18390 | 34810 ft | 515 kts | 208° |
| 2026-05-04 19:55 | -10.55940 | -76.21725 | 34773 ft | 503 kts | 208° |
| 2026-05-04 19:56 | -10.62092 | -76.24918 | 34829 ft | 496 kts | 208° |
| 2026-05-04 19:56 | -10.68270 | -76.28125 | 34822 ft | 496 kts | 208° |
| 2026-05-04 19:57 | -10.74411 | -76.31315 | 34826 ft | 495 kts | 208° |
| 2026-05-04 19:57 | -10.80648 | -76.34272 | 34831 ft | 498 kts | 205° |
| 2026-05-04 19:58 | -10.87013 | -76.37116 | 34833 ft | 497 kts | 205° |
| 2026-05-04 19:58 | -10.93330 | -76.39952 | 34830 ft | 496 kts | 205° |
| 2026-05-04 19:59 | -10.99670 | -76.42800 | 34832 ft | 496 kts | 205° |
| 2026-05-04 19:59 | -11.05889 | -76.45595 | 34790 ft | 468 kts | 205° |
| 2026-05-04 19:59 | -11.08738 | -76.46876 | 34403 ft | 455 kts | 205° |
| 2026-05-04 20:00 | -11.11632 | -76.48177 | 33918 ft | 444 kts | 205° |
| 2026-05-04 20:00 | -11.14399 | -76.49422 | 33447 ft | 433 kts | 205° |
| 2026-05-04 20:00 | -11.17123 | -76.50647 | 32970 ft | 423 kts | 205° |
| 2026-05-04 20:00 | -11.19819 | -76.51861 | 32506 ft | 414 kts | 205° |
| 2026-05-04 20:01 | -11.22418 | -76.53030 | 32077 ft | 405 kts | 205° |
| 2026-05-04 20:01 | -11.24957 | -76.54173 | 31655 ft | 397 kts | 205° |
| 2026-05-04 20:01 | -11.27496 | -76.55317 | 31231 ft | 389 kts | 205° |
| 2026-05-04 20:01 | -11.29944 | -76.56419 | 30812 ft | 382 kts | 205° |
| 2026-05-04 20:02 | -11.32371 | -76.57512 | 30397 ft | 376 kts | 205° |
| 2026-05-04 20:02 | -11.34733 | -76.58576 | 29996 ft | 373 kts | 205° |
| 2026-05-04 20:02 | -11.37104 | -76.59644 | 29598 ft | 372 kts | 205° |
| 2026-05-04 20:02 | -11.39499 | -76.60724 | 29203 ft | 372 kts | 205° |
| 2026-05-04 20:03 | -11.41848 | -76.61783 | 28810 ft | 371 kts | 205° |
| 2026-05-04 20:03 | -11.44206 | -76.62846 | 28421 ft | 366 kts | 204° |
| 2026-05-04 20:03 | -11.46513 | -76.63886 | 28032 ft | 360 kts | 204° |
| 2026-05-04 20:03 | -11.48798 | -76.64916 | 27637 ft | 353 kts | 204° |
| 2026-05-04 20:04 | -11.51015 | -76.65916 | 27246 ft | 348 kts | 204° |
| 2026-05-04 20:04 | -11.53212 | -76.66908 | 26856 ft | 342 kts | 204° |
| 2026-05-04 20:04 | -11.55376 | -76.67884 | 26471 ft | 337 kts | 204° |
| 2026-05-04 20:04 | -11.57507 | -76.68846 | 26083 ft | 332 kts | 204° |
| 2026-05-04 20:05 | -11.59615 | -76.69797 | 25695 ft | 327 kts | 204° |
| 2026-05-04 20:05 | -11.61689 | -76.70734 | 25310 ft | 323 kts | 204° |
| 2026-05-04 20:05 | -11.63737 | -76.71658 | 24922 ft | 319 kts | 204° |
| 2026-05-04 20:05 | -11.65756 | -76.72571 | 24535 ft | 314 kts | 204° |
| 2026-05-04 20:06 | -11.67752 | -76.73472 | 24145 ft | 311 kts | 203° |
| 2026-05-04 20:06 | -11.69719 | -76.74361 | 23736 ft | 307 kts | 204° |
| 2026-05-04 20:06 | -11.71664 | -76.75240 | 23352 ft | 304 kts | 203° |
| 2026-05-04 20:06 | -11.73572 | -76.76102 | 22958 ft | 300 kts | 203° |
| 2026-05-04 20:07 | -11.75450 | -76.76951 | 22489 ft | 290 kts | 203° |
| 2026-05-04 20:07 | -11.77278 | -76.77777 | 22092 ft | 279 kts | 202° |
| 2026-05-04 20:07 | -11.79013 | -76.78561 | 21686 ft | 270 kts | 202° |
| 2026-05-04 20:07 | -11.80723 | -76.79334 | 21351 ft | 264 kts | 202° |
| 2026-05-04 20:08 | -11.82397 | -76.80091 | 20977 ft | 263 kts | 202° |
| 2026-05-04 20:08 | -11.84082 | -76.80853 | 20589 ft | 263 kts | 202° |
| 2026-05-04 20:08 | -11.85748 | -76.81606 | 20218 ft | 263 kts | 202° |
| 2026-05-04 20:08 | -11.87415 | -76.82360 | 19866 ft | 263 kts | 202° |
| 2026-05-04 20:09 | -11.89095 | -76.83121 | 19505 ft | 262 kts | 202° |
| 2026-05-04 20:09 | -11.90754 | -76.83871 | 19125 ft | 262 kts | 202° |
| 2026-05-04 20:09 | -11.92420 | -76.84625 | 18741 ft | 261 kts | 202° |
| 2026-05-04 20:09 | -11.94070 | -76.85372 | 18478 ft | 256 kts | 202° |
| 2026-05-04 20:10 | -11.95680 | -76.86101 | 18244 ft | 250 kts | 202° |
| 2026-05-04 20:10 | -11.97264 | -76.86819 | 17886 ft | 248 kts | 202° |
| 2026-05-04 20:10 | -11.98854 | -76.87538 | 17519 ft | 247 kts | 202° |
| 2026-05-04 20:10 | -12.00408 | -76.88242 | 17151 ft | 245 kts | 202° |
| 2026-05-04 20:11 | -12.01962 | -76.88946 | 16750 ft | 244 kts | 202° |
| 2026-05-04 20:11 | -12.03519 | -76.89651 | 16413 ft | 243 kts | 202° |
| 2026-05-04 20:11 | -12.05054 | -76.90346 | 16085 ft | 241 kts | 203° |
| 2026-05-04 20:11 | -12.06584 | -76.91039 | 15756 ft | 240 kts | 203° |
| 2026-05-04 20:12 | -12.08116 | -76.91734 | 15429 ft | 239 kts | 203° |
| 2026-05-04 20:12 | -12.09624 | -76.92417 | 15067 ft | 237 kts | 203° |
| 2026-05-04 20:12 | -12.11158 | -76.93112 | 14577 ft | 241 kts | 203° |
| 2026-05-04 20:12 | -12.12698 | -76.93810 | 14086 ft | 245 kts | 203° |
| 2026-05-04 20:13 | -12.14265 | -76.94521 | 13581 ft | 248 kts | 203° |
| 2026-05-04 20:13 | -12.15839 | -76.95235 | 13112 ft | 250 kts | 204° |
| 2026-05-04 20:13 | -12.17453 | -76.95966 | 12552 ft | 253 kts | 204° |
| 2026-05-04 20:13 | -12.19062 | -76.96697 | 12043 ft | 254 kts | 204° |
| 2026-05-04 20:14 | -12.20681 | -76.97430 | 11583 ft | 255 kts | 204° |
| 2026-05-04 20:14 | -12.22197 | -76.98335 | 11084 ft | 255 kts | 227° |
| 2026-05-04 20:14 | -12.22948 | -76.99834 | 10610 ft | 250 kts | 263° |
| 2026-05-04 20:14 | -12.22673 | -77.01533 | 10114 ft | 246 kts | 300° |
| 2026-05-04 20:15 | -12.21452 | -77.02706 | 9632 ft | 243 kts | 333° |
| 2026-05-04 20:15 | -12.19854 | -77.03258 | 9144 ft | 242 kts | 348° |
| 2026-05-04 20:15 | -12.18204 | -77.03503 | 8634 ft | 242 kts | 354° |
| 2026-05-04 20:15 | -12.16592 | -77.03809 | 8031 ft | 247 kts | 333° |
| 2026-05-04 20:16 | -12.15100 | -77.04748 | 7439 ft | 253 kts | 329° |
| 2026-05-04 20:16 | -12.13600 | -77.05687 | 6909 ft | 257 kts | 320° |
| 2026-05-04 20:16 | -12.12648 | -77.07211 | 6419 ft | 260 kts | 284° |
| 2026-05-04 20:16 | -12.12762 | -77.09038 | 5954 ft | 264 kts | 248° |
| 2026-05-04 20:17 | -12.13910 | -77.10481 | 5490 ft | 267 kts | 212° |
| 2026-05-04 20:17 | -12.15658 | -77.10998 | 5027 ft | 267 kts | 177° |
| 2026-05-04 20:17 | -12.17482 | -77.10674 | 4559 ft | 266 kts | 166° |
| 2026-05-04 20:17 | -12.19288 | -77.10158 | 4027 ft | 268 kts | 152° |
| 2026-05-04 20:18 | -12.20869 | -77.09164 | 3535 ft | 267 kts | 145° |
| 2026-05-04 20:18 | -12.22409 | -77.08109 | 3071 ft | 265 kts | 145° |
| 2026-05-04 20:18 | -12.23889 | -77.07093 | 2986 ft | 249 kts | 145° |
| 2026-05-04 20:18 | -12.25275 | -77.06142 | 2955 ft | 231 kts | 145° |
| 2026-05-04 20:19 | -12.26562 | -77.05258 | 2944 ft | 214 kts | 145° |
| 2026-05-04 20:19 | -12.27754 | -77.04440 | 2938 ft | 197 kts | 145° |
| 2026-05-04 20:19 | -12.28855 | -77.03686 | 2937 ft | 181 kts | 145° |
| 2026-05-04 20:19 | -12.29853 | -77.03005 | 2933 ft | 166 kts | 145° |
| 2026-05-04 20:20 | -12.30800 | -77.02354 | 2944 ft | 162 kts | 144° |
| 2026-05-04 20:20 | -12.31715 | -77.01685 | 3034 ft | 162 kts | 141° |
| 2026-05-04 20:20 | -12.32637 | -77.00986 | 3096 ft | 164 kts | 144° |
| 2026-05-04 20:20 | -12.33470 | -77.00222 | 3334 ft | 161 kts | 115° |
| 2026-05-04 20:21 | -12.33583 | -76.99136 | 3845 ft | 156 kts | 70° |
| 2026-05-04 20:21 | -12.32929 | -76.98335 | 4395 ft | 146 kts | 33° |
| 2026-05-04 20:21 | -12.31446 | -76.96962 | 5401 ft | 145 kts | 41° |
| 2026-05-04 20:22 | -12.30647 | -76.96213 | 5318 ft | 165 kts | 34° |
| 2026-05-04 20:22 | -12.29584 | -76.95935 | 5043 ft | 164 kts | 350° |
| 2026-05-04 20:22 | -12.28601 | -76.96487 | 4777 ft | 163 kts | 320° |
| 2026-05-04 20:22 | -12.27752 | -76.97272 | 4543 ft | 163 kts | 318° |
| 2026-05-04 20:23 | -12.26823 | -76.97896 | 4261 ft | 161 kts | 333° |
| 2026-05-04 20:23 | -12.25840 | -76.98453 | 4060 ft | 161 kts | 332° |
| 2026-05-04 20:23 | -12.24865 | -76.99004 | 3809 ft | 160 kts | 332° |
| 2026-05-04 20:23 | -12.23900 | -76.99551 | 3550 ft | 159 kts | 332° |
| 2026-05-04 20:24 | -12.22944 | -77.00114 | 3288 ft | 158 kts | 329° |
| 2026-05-04 20:24 | -12.22022 | -77.00676 | 3035 ft | 157 kts | 330° |
| 2026-05-04 20:24 | -12.21081 | -77.01246 | 2778 ft | 156 kts | 330° |
| 2026-05-04 20:24 | -12.20129 | -77.01773 | 2521 ft | 157 kts | 333° |
| 2026-05-04 20:25 | -12.19155 | -77.02280 | 2260 ft | 157 kts | 333° |
| 2026-05-04 20:25 | -12.18182 | -77.02783 | 2000 ft | 154 kts | 333° |
| 2026-05-04 20:25 | -12.17240 | -77.03317 | 1725 ft | 154 kts | 328° |
| 2026-05-04 20:25 | -12.16343 | -77.03896 | 1523 ft | 152 kts | 327° |
| 2026-05-04 20:26 | -12.15422 | -77.04466 | 1517 ft | 154 kts | 329° |
| 2026-05-04 20:26 | -12.14490 | -77.05026 | 1512 ft | 157 kts | 328° |
| 2026-05-04 20:26 | -12.13563 | -77.05616 | 1509 ft | 158 kts | 327° |
| 2026-05-04 20:26 | -12.12623 | -77.06184 | 1494 ft | 157 kts | 330° |
| 2026-05-04 20:27 | -12.11653 | -77.06700 | 1468 ft | 156 kts | 332° |
| 2026-05-04 20:27 | -12.10677 | -77.07203 | 1454 ft | 157 kts | 332° |
| 2026-05-04 20:27 | -12.09714 | -77.07691 | 1313 ft | 157 kts | 332° |
| 2026-05-04 20:27 | -12.08754 | -77.08183 | 1126 ft | 156 kts | 333° |
| 2026-05-04 20:28 | -12.07798 | -77.08658 | 933 ft | 153 kts | 333° |
| 2026-05-04 20:28 | -12.06833 | -77.09123 | 767 ft | 153 kts | 334° |
| 2026-05-04 20:28 | -12.05910 | -77.09595 | 595 ft | 152 kts | 333° |
| 2026-05-04 20:28 | -12.04958 | -77.10060 | 449 ft | 154 kts | 331° |
| 2026-05-04 20:29 | -12.03992 | -77.10536 | 259 ft | 153 kts | 332° |
| 2026-05-04 20:29 | -12.03060 | -77.11002 | 127 ft | 131 kts | 334° |
| 2026-05-04 20:29 | -12.02526 | -77.11265 | 127 ft | 58 kts | 334° |
| 2026-05-04 20:29 | -12.02180 | -77.11440 | 127 ft | 47 kts | 336° |
| 2026-05-04 20:30 | -12.02042 | -77.11505 | 127 ft | 8 kts | 331° |
| 2026-05-04 20:30 | -12.01992 | -77.11530 | 127 ft | 10 kts | 334° |
| 2026-05-04 20:30 | -12.01914 | -77.11568 | 127 ft | 13 kts | 335° |
| 2026-05-04 20:30 | -12.01807 | -77.11619 | 127 ft | 19 kts | 334° |
| 2026-05-04 20:31 | -12.01736 | -77.11656 | 127 ft | 14 kts | 332° |